createdAt,value
2019-05-06T00:00:25.437Z,0.70
2019-05-06T00:02:54.447Z,0.60
2019-05-06T00:05:25.356Z,0.60
2019-05-06T00:07:54.404Z,0.60
2019-05-06T00:10:29.145Z,0.60
2019-05-06T00:12:57.913Z,0.60
2019-05-06T00:15:26.924Z,0.60
2019-05-06T00:17:55.613Z,0.60
2019-05-06T00:20:24.496Z,0.60
2019-05-06T00:22:54.783Z,0.60
2019-05-06T00:25:30.693Z,0.50
2019-05-06T00:28:09.970Z,0.50
2019-05-06T00:30:40.162Z,0.50
2019-05-06T00:33:08.592Z,0.50
2019-05-06T00:35:37.027Z,0.50
2019-05-06T00:38:05.510Z,0.40
2019-05-06T00:40:35.588Z,0.50
2019-05-06T00:43:05.840Z,0.50
2019-05-06T00:45:34.293Z,0.50
2019-05-06T00:48:04.622Z,0.50
2019-05-06T00:50:34.856Z,0.50
2019-05-06T00:53:05.325Z,0.50
2019-05-06T00:55:33.914Z,0.50
2019-05-06T00:58:04.090Z,0.60
2019-05-06T01:00:33.871Z,0.60
2019-05-06T01:03:04.290Z,0.60
2019-05-06T01:05:33.798Z,0.60
2019-05-06T01:08:04.033Z,0.50
2019-05-06T01:10:34.402Z,0.60
2019-05-06T01:13:07.395Z,0.60
2019-05-06T01:15:35.912Z,0.70
2019-05-06T01:18:05.927Z,0.70
2019-05-06T01:20:34.501Z,0.70
2019-05-06T01:23:03.788Z,0.70
2019-05-06T01:25:34.560Z,0.80
2019-05-06T01:28:04.287Z,0.80
2019-05-06T01:30:33.700Z,0.80
2019-05-06T01:33:03.928Z,0.80
2019-05-06T01:35:35.045Z,0.80
2019-05-06T01:38:14.659Z,0.80
2019-05-06T01:40:57.189Z,0.80
2019-05-06T01:43:30.570Z,0.80
2019-05-06T01:45:59.116Z,0.80
2019-05-06T01:48:45.720Z,0.80
2019-05-06T01:51:14.639Z,0.80
2019-05-06T01:53:44.814Z,0.80
2019-05-06T01:56:14.548Z,0.90
2019-05-06T01:58:43.963Z,0.90
2019-05-06T02:01:14.848Z,0.90
2019-05-06T02:03:44.251Z,0.90
2019-05-06T02:06:14.075Z,1.10
2019-05-06T02:08:44.834Z,1.10
2019-05-06T02:11:14.908Z,1.10
2019-05-06T02:13:44.279Z,1.10
2019-05-06T02:16:14.627Z,1.20
2019-05-06T02:18:44.789Z,1.10
2019-05-06T02:21:15.179Z,1.10
2019-05-06T02:23:48.008Z,1.00
2019-05-06T02:26:16.621Z,1.00
2019-05-06T02:28:46.696Z,1.00
2019-05-06T02:31:35.353Z,1.00
2019-05-06T02:34:05.294Z,1.10
2019-05-06T02:36:38.306Z,1.10
2019-05-06T02:39:07.455Z,1.10
2019-05-06T02:41:36.235Z,1.10
2019-05-06T02:44:04.914Z,1.20
2019-05-06T02:46:34.108Z,1.20
2019-05-06T02:49:13.165Z,1.30
2019-05-06T02:51:44.077Z,1.20
2019-05-06T02:54:13.533Z,1.10
2019-05-06T02:56:43.605Z,1.10
2019-05-06T02:59:13.516Z,1.10
2019-05-06T03:01:43.431Z,1.10
2019-05-06T03:04:13.228Z,1.10
2019-05-06T03:06:44.692Z,1.20
2019-05-06T03:09:13.737Z,1.20
2019-05-06T03:11:43.897Z,1.30
2019-05-06T03:14:14.141Z,1.30
2019-05-06T03:16:43.909Z,1.30
2019-05-06T03:19:13.488Z,1.40
2019-05-06T03:21:46.536Z,1.50
2019-05-06T03:24:19.546Z,1.60
2019-05-06T03:26:49.620Z,1.70
2019-05-06T03:29:18.123Z,1.70
2019-05-06T03:31:46.734Z,1.70
2019-05-06T03:34:34.599Z,1.80
2019-05-06T03:36:48.515Z,1.80
2019-05-06T03:39:15.578Z,1.90
2019-05-06T03:41:44.046Z,1.90
2019-05-06T03:44:16.316Z,1.90
2019-05-06T03:47:05.262Z,1.90
2019-05-06T03:49:33.956Z,1.80
2019-05-06T03:52:03.004Z,1.80
2019-05-06T03:54:34.263Z,1.80
2019-05-06T03:57:04.257Z,1.80
2019-05-06T03:59:34.072Z,1.70
2019-05-06T04:02:05.229Z,1.70
2019-05-06T04:04:33.362Z,1.80
2019-05-06T04:07:03.429Z,1.90
2019-05-06T04:09:33.552Z,2.00
2019-05-06T04:12:03.589Z,2.00
2019-05-06T04:14:34.159Z,2.00
2019-05-06T04:17:04.378Z,2.00
2019-05-06T04:19:34.617Z,2.20
2019-05-06T04:22:04.844Z,2.30
2019-05-06T04:24:53.693Z,2.40
2019-05-06T04:27:27.942Z,2.30
2019-05-06T04:29:57.325Z,2.30
2019-05-06T04:32:25.829Z,2.30
2019-05-06T04:34:54.265Z,2.30
2019-05-06T04:37:24.141Z,2.10
2019-05-06T04:39:53.544Z,2.40
2019-05-06T04:42:23.254Z,2.50
2019-05-06T04:44:53.215Z,2.60
2019-05-06T04:47:24.203Z,2.60
2019-05-06T04:49:53.227Z,2.60
2019-05-06T04:52:22.887Z,3.00
2019-05-06T04:54:53.367Z,3.00
2019-05-06T04:57:23.854Z,3.10
2019-05-06T04:59:54.275Z,3.10
2019-05-06T05:02:23.094Z,3.30
2019-05-06T05:04:53.143Z,3.30
2019-05-06T05:07:22.478Z,3.40
2019-05-06T05:09:53.691Z,3.50
2019-05-06T05:12:24.094Z,3.50
2019-05-06T05:14:54.316Z,3.60
2019-05-06T05:17:24.725Z,3.70
2019-05-06T05:19:53.510Z,3.60
2019-05-06T05:22:22.041Z,3.70
2019-05-06T05:24:52.117Z,3.70
2019-05-06T05:27:21.951Z,3.70
2019-05-06T05:29:52.175Z,3.80
2019-05-06T05:32:22.477Z,3.60
2019-05-06T05:34:52.298Z,3.50
2019-05-06T05:37:22.604Z,3.60
2019-05-06T05:39:52.000Z,3.70
2019-05-06T05:42:22.378Z,3.60
2019-05-06T05:44:52.752Z,3.70
2019-05-06T05:47:22.110Z,3.50
2019-05-06T05:50:13.169Z,3.60
2019-05-06T05:52:42.586Z,3.90
2019-05-06T05:55:12.165Z,4.30
2019-05-06T05:57:43.125Z,4.70
2019-05-06T06:00:12.897Z,4.80
2019-05-06T06:02:43.707Z,5.10
2019-05-06T06:05:12.542Z,5.40
2019-05-06T06:07:42.221Z,5.70
2019-05-06T06:10:15.560Z,6.20
2019-05-06T06:12:44.132Z,7.20
2019-05-06T06:15:14.444Z,6.60
2019-05-06T06:17:47.164Z,6.70
2019-05-06T06:20:35.400Z,6.80
2019-05-06T06:23:05.701Z,6.90
2019-05-06T06:25:34.390Z,6.80
2019-05-06T06:28:02.889Z,6.60
2019-05-06T06:30:33.216Z,6.40
2019-05-06T06:33:02.562Z,6.60
2019-05-06T06:35:35.953Z,6.90
2019-05-06T06:38:12.384Z,7.10
2019-05-06T06:40:42.572Z,7.20
2019-05-06T06:43:12.856Z,7.30
2019-05-06T06:45:42.140Z,7.30
2019-05-06T06:48:12.331Z,7.40
2019-05-06T06:50:42.655Z,7.50
2019-05-06T06:53:12.320Z,7.50
2019-05-06T06:55:42.754Z,7.20
2019-05-06T06:58:16.156Z,7.20
2019-05-06T07:00:49.908Z,7.40
2019-05-06T07:03:21.848Z,7.50
2019-05-06T07:05:55.444Z,7.50
2019-05-06T07:08:33.909Z,7.40
2019-05-06T07:10:56.914Z,7.40
2019-05-06T07:13:25.539Z,7.40
2019-05-06T07:15:54.038Z,7.60
2019-05-06T07:18:22.672Z,7.80
2019-05-06T07:21:04.474Z,8.00
2019-05-06T07:23:33.417Z,8.20
2019-05-06T07:26:03.105Z,8.40
2019-05-06T07:28:32.624Z,8.30
2019-05-06T07:31:17.406Z,8.20
2019-05-06T07:33:33.532Z,8.10
2019-05-06T07:36:02.278Z,8.10
2019-05-06T07:38:32.610Z,8.00
2019-05-06T07:41:04.574Z,8.20
2019-05-06T07:43:42.054Z,8.30
2019-05-06T07:46:18.289Z,8.30
2019-05-06T07:48:46.784Z,8.30
2019-05-06T07:51:15.217Z,8.30
2019-05-06T07:53:43.653Z,8.20
2019-05-06T07:56:12.632Z,8.20
2019-05-06T07:58:43.432Z,8.30
2019-05-06T08:01:13.535Z,8.50
2019-05-06T08:03:42.890Z,8.50
2019-05-06T08:06:13.159Z,8.50
2019-05-06T08:08:43.385Z,8.50
2019-05-06T08:11:12.460Z,8.60
2019-05-06T08:13:43.256Z,8.70
2019-05-06T08:16:13.099Z,8.90
2019-05-06T08:18:42.518Z,9.00
2019-05-06T08:21:22.403Z,9.10
2019-05-06T08:23:52.866Z,9.10
2019-05-06T08:26:22.482Z,9.10
2019-05-06T08:28:52.586Z,9.40
2019-05-06T08:31:22.632Z,9.80
2019-05-06T08:33:52.355Z,10.00
2019-05-06T08:36:22.820Z,10.10
2019-05-06T08:39:02.763Z,10.40
2019-05-06T08:41:33.195Z,10.50
2019-05-06T08:44:02.653Z,10.70
2019-05-06T08:46:32.705Z,11.00
2019-05-06T08:49:03.098Z,11.10
2019-05-06T08:51:39.611Z,11.50
2019-05-06T08:54:09.777Z,11.70
2019-05-06T08:56:38.225Z,12.20
2019-05-06T08:59:06.648Z,12.90
2019-05-06T09:01:53.343Z,13.70
2019-05-06T09:04:22.817Z,13.80
2019-05-06T09:06:53.468Z,12.70
2019-05-06T09:09:22.337Z,12.90
2019-05-06T09:11:53.114Z,13.20
2019-05-06T09:14:23.296Z,13.00
2019-05-06T09:16:53.833Z,12.80
2019-05-06T09:19:23.332Z,13.60
2019-05-06T09:21:53.271Z,14.00
2019-05-06T09:24:23.012Z,14.00
2019-05-06T09:30:02.825Z,14.60
2019-05-06T09:32:35.988Z,15.70
2019-05-06T09:35:03.077Z,15.80
2019-05-06T09:37:32.486Z,15.70
2019-05-06T09:40:02.757Z,16.00
2019-05-06T09:42:32.186Z,16.00
2019-05-06T09:45:02.289Z,16.20
2019-05-06T09:47:38.820Z,15.90
2019-05-06T09:50:12.596Z,16.60
2019-05-06T09:52:42.720Z,16.30
2019-05-06T09:55:16.765Z,14.90
2019-05-06T09:58:03.515Z,13.00
2019-05-06T10:00:34.075Z,12.70
2019-05-06T10:03:03.369Z,13.00
2019-05-06T10:05:32.226Z,13.20
2019-05-06T10:08:03.083Z,13.10
2019-05-06T10:10:32.809Z,13.00
2019-05-06T10:13:02.769Z,13.10
2019-05-06T10:15:32.582Z,13.00
2019-05-06T10:18:07.385Z,12.90
2019-05-06T10:20:37.813Z,12.90
2019-05-06T10:23:07.676Z,12.90
2019-05-06T10:25:36.291Z,12.90
2019-05-06T10:28:07.384Z,13.00
2019-05-06T10:30:35.878Z,13.10
2019-05-06T10:33:06.129Z,13.50
2019-05-06T10:35:34.630Z,13.20
2019-05-06T10:38:22.978Z,13.20
2019-05-06T10:41:04.066Z,13.50
2019-05-06T10:43:48.820Z,12.90
2019-05-06T10:46:17.250Z,12.20
2019-05-06T10:48:45.677Z,11.50
2019-05-06T10:51:17.029Z,12.40
2019-05-06T10:56:27.581Z,13.00
2019-05-06T10:58:57.647Z,11.70
2019-05-06T11:01:33.350Z,10.90
2019-05-06T11:04:02.858Z,11.60
2019-05-06T11:06:33.517Z,11.40
2019-05-06T11:09:03.191Z,11.30
2019-05-06T11:11:38.168Z,11.10
2019-05-06T11:14:03.115Z,11.20
2019-05-06T11:16:33.277Z,11.00
2019-05-06T11:19:02.113Z,10.90
2019-05-06T11:21:32.865Z,10.60
2019-05-06T11:24:01.573Z,10.70
2019-05-06T11:26:31.696Z,10.50
2019-05-06T11:29:05.226Z,10.40
2019-05-06T11:31:33.706Z,10.60
2019-05-06T11:34:16.481Z,10.40
2019-05-06T11:36:46.561Z,10.50
2019-05-06T11:39:14.977Z,10.90
2019-05-06T11:41:59.667Z,11.00
2019-05-06T11:44:13.633Z,11.10
2019-05-06T11:46:42.933Z,11.10
2019-05-06T11:49:12.497Z,11.10
2019-05-06T11:51:43.457Z,10.60
2019-05-06T11:54:19.351Z,10.20
2019-05-06T11:56:50.773Z,9.80
2019-05-06T11:59:12.973Z,9.90
2019-05-06T12:01:43.530Z,9.80
2019-05-06T12:04:13.884Z,10.00
2019-05-06T12:06:42.634Z,9.90
2019-05-06T12:09:16.031Z,10.10
2019-05-06T12:11:43.216Z,10.20
2019-05-06T12:14:12.345Z,10.40
2019-05-06T12:16:41.129Z,10.50
2019-05-06T12:19:09.761Z,10.70
2019-05-06T12:21:38.189Z,11.10
2019-05-06T12:24:06.617Z,11.10
2019-05-06T12:26:35.236Z,10.90
2019-05-06T12:29:03.668Z,10.70
2019-05-06T12:31:32.773Z,10.60
2019-05-06T12:34:02.723Z,10.60
2019-05-06T12:36:32.637Z,10.80
2019-05-06T12:39:17.563Z,11.30
2019-05-06T12:42:03.312Z,11.20
2019-05-06T12:44:33.397Z,11.00
2019-05-06T12:47:03.590Z,10.70
2019-05-06T12:49:32.602Z,10.90
2019-05-06T12:52:01.302Z,10.80
2019-05-06T12:54:29.725Z,10.70
2019-05-06T12:56:59.035Z,10.70
2019-05-06T12:59:27.513Z,10.60
2019-05-06T13:01:56.214Z,10.50
2019-05-06T13:04:44.558Z,10.60
2019-05-06T13:06:55.129Z,10.50
2019-05-06T13:09:23.623Z,10.50
2019-05-06T13:11:52.438Z,10.70
2019-05-06T13:14:22.446Z,10.70
2019-05-06T13:16:53.022Z,10.80
2019-05-06T13:19:22.893Z,11.00
2019-05-06T13:21:51.657Z,11.20
2019-05-06T13:24:20.216Z,11.30
2019-05-06T13:26:48.633Z,11.60
2019-05-06T13:29:18.717Z,11.70
2019-05-06T13:31:47.146Z,12.20
2019-05-06T13:34:19.288Z,12.40
2019-05-06T13:36:48.192Z,12.60
2019-05-06T13:39:16.821Z,13.20
2019-05-06T13:41:45.336Z,13.40
2019-05-06T13:44:15.421Z,13.80
2019-05-06T13:46:45.493Z,13.90
2019-05-06T13:49:28.010Z,13.90
2019-05-06T13:52:04.916Z,14.00
2019-05-06T13:54:33.781Z,14.00
2019-05-06T13:57:02.947Z,13.80
2019-05-06T13:59:34.798Z,13.70
2019-05-06T14:02:16.275Z,13.40
2019-05-06T14:04:44.977Z,13.40
2019-05-06T14:07:13.476Z,13.20
2019-05-06T14:09:43.623Z,13.40
2019-05-06T14:12:12.204Z,13.50
2019-05-06T14:14:42.964Z,13.60
2019-05-06T14:17:12.759Z,13.80
2019-05-06T14:19:42.995Z,14.00
2019-05-06T14:22:12.541Z,14.10
2019-05-06T14:24:43.220Z,14.20
2019-05-06T14:27:12.445Z,14.40
2019-05-06T14:29:42.559Z,14.60
2019-05-06T14:32:12.282Z,14.00
2019-05-06T14:34:43.283Z,14.20
2019-05-06T14:37:11.426Z,14.60
2019-05-06T14:39:52.785Z,14.60
2019-05-06T14:42:12.768Z,14.40
2019-05-06T14:44:43.099Z,14.30
2019-05-06T14:47:13.108Z,14.10
2019-05-06T14:49:43.171Z,14.20
2019-05-06T14:52:13.201Z,14.20
2019-05-06T14:54:49.442Z,14.10
2019-05-06T14:57:18.901Z,14.20
2019-05-06T14:59:50.531Z,14.00
2019-05-06T15:02:18.597Z,14.00
2019-05-06T15:04:47.106Z,14.10
2019-05-06T15:07:15.531Z,14.00
2019-05-06T15:09:55.729Z,13.70
2019-05-06T15:12:14.329Z,13.80
2019-05-06T15:14:42.768Z,13.70
2019-05-06T15:17:11.245Z,13.60
2019-05-06T15:19:39.677Z,13.50
2019-05-06T15:22:08.104Z,13.50
2019-05-06T15:24:36.552Z,13.70
2019-05-06T15:27:05.163Z,13.60
2019-05-06T15:29:33.857Z,13.60
2019-05-06T15:32:13.169Z,13.50
2019-05-06T15:34:55.594Z,13.10
2019-05-06T15:37:24.730Z,13.00
2019-05-06T15:39:53.295Z,13.10
2019-05-06T15:42:22.469Z,12.80
2019-05-06T15:44:51.056Z,12.40
2019-05-06T15:47:19.486Z,12.30
2019-05-06T15:49:47.961Z,12.30
2019-05-06T15:52:16.477Z,12.30
2019-05-06T15:54:45.215Z,12.30
2019-05-06T15:57:13.771Z,12.50
2019-05-06T15:59:44.467Z,12.70
2019-05-06T16:02:12.784Z,12.80
2019-05-06T16:04:43.009Z,12.70
2019-05-06T16:07:12.658Z,13.00
2019-05-06T16:09:42.899Z,13.00
2019-05-06T16:12:12.783Z,13.10
2019-05-06T16:14:42.444Z,13.10
2019-05-06T16:17:12.292Z,13.00
2019-05-06T16:19:42.717Z,12.80
2019-05-06T16:22:11.316Z,12.70
2019-05-06T16:24:43.051Z,12.70
2019-05-06T16:27:12.396Z,12.60
2019-05-06T16:29:42.885Z,12.50
2019-05-06T16:32:11.253Z,12.30
2019-05-06T16:34:39.681Z,12.30
2019-05-06T16:37:08.162Z,12.30
2019-05-06T16:39:36.596Z,12.40
2019-05-06T16:42:05.303Z,12.20
2019-05-06T16:44:33.747Z,12.30
2019-05-06T16:47:02.858Z,12.30
2019-05-06T16:49:33.196Z,12.30
2019-05-06T16:52:02.597Z,12.30
2019-05-06T16:54:34.396Z,12.30
2019-05-06T16:57:06.236Z,12.20
2019-05-06T16:59:34.723Z,12.20
2019-05-06T17:02:04.784Z,12.10
2019-05-06T17:04:34.877Z,11.90
2019-05-06T17:07:03.492Z,11.80
2019-05-06T17:09:33.147Z,11.90
2019-05-06T17:12:04.472Z,11.90
2019-05-06T17:14:32.538Z,11.80
2019-05-06T17:17:03.089Z,11.70
2019-05-06T17:19:32.375Z,11.60
2019-05-06T17:22:03.005Z,11.50
2019-05-06T17:24:33.020Z,11.40
2019-05-06T17:27:02.708Z,11.30
2019-05-06T17:29:38.676Z,11.20
2019-05-06T17:32:18.010Z,11.20
2019-05-06T17:34:48.273Z,11.20
2019-05-06T17:37:36.978Z,11.20
2019-05-06T17:40:10.788Z,11.10
2019-05-06T17:42:38.037Z,11.00
2019-05-06T17:45:09.480Z,11.00
2019-05-06T17:47:39.545Z,10.90
2019-05-06T17:50:08.229Z,10.90
2019-05-06T17:52:36.721Z,10.90
2019-05-06T17:55:05.894Z,10.80
2019-05-06T17:57:34.332Z,10.70
2019-05-06T18:00:03.915Z,10.70
2019-05-06T18:02:33.095Z,10.70
2019-05-06T18:05:02.816Z,10.60
2019-05-06T18:07:32.665Z,10.40
2019-05-06T18:10:03.096Z,10.30
2019-05-06T18:12:32.852Z,10.20
2019-05-06T18:15:02.670Z,10.10
2019-05-06T18:17:33.484Z,10.00
2019-05-06T18:20:02.937Z,9.90
2019-05-06T18:22:32.779Z,9.90
2019-05-06T18:25:02.359Z,9.80
2019-05-06T18:27:32.565Z,9.80
2019-05-06T18:30:13.371Z,9.70
2019-05-06T18:32:33.127Z,9.70
2019-05-06T18:35:02.647Z,9.60
2019-05-06T18:37:33.159Z,9.60
2019-05-06T18:40:01.538Z,9.50
2019-05-06T18:42:29.957Z,9.50
2019-05-06T18:44:58.450Z,9.40
2019-05-06T18:47:26.887Z,9.40
2019-05-06T18:49:55.314Z,9.30
2019-05-06T18:52:23.734Z,9.20
2019-05-06T18:54:52.482Z,9.20
2019-05-06T18:57:22.691Z,9.20
2019-05-06T18:59:53.253Z,9.10
2019-05-06T19:02:22.880Z,9.10
2019-05-06T19:04:53.275Z,9.00
2019-05-06T19:07:22.190Z,9.00
2019-05-06T19:09:52.461Z,9.00
2019-05-06T19:12:32.035Z,8.90
2019-05-06T19:14:52.543Z,8.90
2019-05-06T19:17:22.490Z,8.90
2019-05-06T19:19:52.002Z,8.80
2019-05-06T19:22:22.690Z,8.70
2019-05-06T19:24:52.081Z,8.70
2019-05-06T19:27:24.585Z,8.60
2019-05-06T19:29:54.282Z,8.60
2019-05-06T19:32:22.508Z,8.40
2019-05-06T19:34:52.954Z,8.30
2019-05-06T19:37:23.292Z,8.30
2019-05-06T19:39:52.604Z,8.20
2019-05-06T19:42:22.454Z,8.10
2019-05-06T19:44:52.778Z,8.20
2019-05-06T19:47:21.581Z,8.10
2019-05-06T19:49:50.393Z,8.10
2019-05-06T19:52:19.096Z,8.00
2019-05-06T19:54:49.284Z,7.90
2019-05-06T19:57:17.897Z,7.90
2019-05-06T19:59:46.357Z,7.80
2019-05-06T20:02:15.308Z,7.80
2019-05-06T20:04:45.545Z,7.80
2019-05-06T20:07:22.854Z,7.80
2019-05-06T20:09:59.406Z,7.80
2019-05-06T20:12:32.813Z,7.80
2019-05-06T20:15:19.105Z,7.80
2019-05-06T20:17:47.552Z,7.80
2019-05-06T20:20:16.057Z,7.80
2019-05-06T20:22:44.476Z,7.70
2019-05-06T20:25:13.072Z,7.60
2019-05-06T20:27:42.081Z,7.50
2019-05-06T20:30:11.312Z,7.40
2019-05-06T20:32:39.764Z,7.30
2019-05-06T20:35:08.566Z,7.20
2019-05-06T20:37:37.052Z,7.20
2019-05-06T20:40:06.095Z,7.10
2019-05-06T20:42:34.528Z,7.00
2019-05-06T20:45:03.041Z,7.00
2019-05-06T20:47:32.012Z,6.90
2019-05-06T20:50:02.389Z,6.80
2019-05-06T20:52:33.068Z,6.80
2019-05-06T20:55:02.788Z,6.60
2019-05-06T20:57:31.109Z,6.50
2019-05-06T20:59:59.584Z,6.50
2019-05-06T21:02:28.080Z,6.50
2019-05-06T21:04:56.504Z,6.60
2019-05-06T21:07:24.945Z,6.60
2019-05-06T21:09:53.376Z,6.50
2019-05-06T21:12:21.953Z,6.50
2019-05-06T21:14:50.568Z,6.40
2019-05-06T21:17:18.993Z,6.30
2019-05-06T21:19:47.469Z,6.30
2019-05-06T21:22:15.901Z,6.30
2019-05-06T21:24:44.331Z,6.20
2019-05-06T21:27:12.780Z,6.30
2019-05-06T21:29:42.025Z,6.20
2019-05-06T21:32:10.623Z,6.20
2019-05-06T21:34:39.069Z,6.10
2019-05-06T21:37:07.507Z,5.90
2019-05-06T21:39:35.980Z,5.80
2019-05-06T21:42:04.401Z,5.80
2019-05-06T21:44:32.886Z,5.70
2019-05-06T21:47:02.980Z,5.60
2019-05-06T21:49:32.690Z,5.50
2019-05-06T21:52:02.116Z,5.50
2019-05-06T21:54:32.695Z,5.40
2019-05-06T21:57:02.862Z,5.30
2019-05-06T21:59:31.563Z,5.30
2019-05-06T22:02:00.249Z,5.20
2019-05-06T22:04:28.741Z,5.10
2019-05-06T22:06:57.165Z,5.10
2019-05-06T22:09:25.604Z,5.00
2019-05-06T22:11:54.049Z,4.90
2019-05-06T22:14:23.113Z,4.80
2019-05-06T22:16:51.762Z,4.80
2019-05-06T22:19:20.185Z,4.70
2019-05-06T22:22:03.387Z,4.60
2019-05-06T22:24:45.475Z,4.40
2019-05-06T22:27:14.452Z,4.40
2019-05-06T22:29:42.885Z,4.30
2019-05-06T22:32:11.907Z,4.20
2019-05-06T22:34:42.521Z,4.10
2019-05-06T22:37:12.553Z,4.00
2019-05-06T22:39:43.540Z,4.00
2019-05-06T22:42:11.608Z,3.90
2019-05-06T22:47:08.177Z,3.70
2019-05-06T22:49:36.601Z,3.50
2019-05-06T22:52:05.317Z,3.50
2019-05-06T22:54:33.785Z,3.50
2019-05-06T22:57:02.456Z,3.60
2019-05-06T22:59:32.847Z,3.50
2019-05-06T23:02:05.593Z,3.60
2019-05-06T23:04:38.100Z,3.60
2019-05-06T23:07:06.649Z,3.50
2019-05-06T23:09:35.078Z,3.50
2019-05-06T23:12:04.857Z,3.50
2019-05-06T23:14:36.868Z,3.50
2019-05-06T23:17:03.745Z,3.50
2019-05-06T23:19:32.205Z,3.40
2019-05-06T23:22:04.050Z,3.40
2019-05-06T23:24:32.144Z,3.30
2019-05-06T23:27:02.409Z,3.20
2019-05-06T23:29:33.373Z,3.20
2019-05-06T23:32:02.974Z,3.10
2019-05-06T23:34:32.467Z,3.10
2019-05-06T23:37:04.183Z,3.10
2019-05-06T23:40:12.532Z,3.00
2019-05-06T23:43:17.070Z,2.90
2019-05-06T23:46:22.777Z,2.70
2019-05-06T23:49:27.662Z,2.60
2019-05-06T23:52:32.757Z,2.60
2019-05-06T23:55:37.628Z,2.50
2019-05-06T23:58:05.021Z,2.50
